Time;durP1;ratioP1;P1;durP2;ratioP2;P2;SDS_P1;SDS_P2;PMS_P1;PMS_P2;Temp;Humidity;BMP_temperature;BMP_pressure;BME280_temperature;BME280_humidity;BME280_pressure;Samples;Min_cycle;Max_cycle;Signal;HPM_P1;HPM_P2
2023/02/16 00:02:14;;;;;;;34.60;14.40;;;;;;;;;;105759;1292;22553;-75
2023/02/16 00:05:17;;;;;;;;;;;;;;;;;;;;;
2023/02/16 00:08:11;;;;;;;42.80;17.10;;;;;;;;;;105839;1273;22666;-78
2023/02/16 00:10:37;;;;;;;37.20;15.30;;;;;;;;;;109769;1286;23360;-74
2023/02/16 00:16:34;;;;;;;42.90;16.90;;;;;;;;;;109790;1263;23003;-74
2023/02/16 00:19:11;;;;;;;35.50;15.10;;;;;;;;;;110319;1278;22152;-73
2023/02/16 00:21:48;;;;;;;39.20;15.50;;;;;;;;;;110399;1278;22929;-75
2023/02/16 00:24:15;;;;;;;40.90;17.00;;;;;;;;;;110407;1278;22964;-74
2023/02/16 00:26:45;;;;;;;38.20;16.70;;;;;;;;;;110175;1261;22119;-75
2023/02/16 00:29:32;;;;;;;38.20;16.30;;;;;;;;;;110140;1270;22250;-74
2023/02/16 00:32:00;;;;;;;39.70;17.30;;;;;;;;;;110058;1281;22152;-74
2023/02/16 00:34:31;;;;;;;38.40;17.00;;;;;;;;;;110042;1281;22801;-73
2023/02/16 00:37:01;;;;;;;36.70;15.60;;;;;;;;;;110088;1262;22020;-74
2023/02/16 00:39:28;;;;;;;39.60;16.50;;;;;;;;;;110364;1278;22705;-74
2023/02/16 00:41:56;;;;;;;37.50;15.70;;;;;;;;;;110197;1278;22191;-74
2023/02/16 00:44:31;;;;;;;43.10;18.40;;;;;;;;;;110335;1278;22128;-74
2023/02/16 00:47:10;;;;;;;36.30;15.80;;;;;;;;;;110367;1256;22242;-74
2023/02/16 00:49:37;;;;;;;42.20;17.30;;;;;;;;;;110155;1279;22155;-75
2023/02/16 00:52:27;;;;;;;;;;;;;;;;;;;;;
2023/02/16 00:54:55;;;;;;;35.00;15.30;;;;;;;;;;110219;1279;22138;-74
2023/02/16 00:57:22;;;;;;;36.50;16.20;;;;;;;;;;110231;1257;22155;-74
2023/02/16 01:00:00;;;;;;;38.50;16.50;;;;;;;;;;110348;1278;22101;-75
2023/02/16 01:02:45;;;;;;;;;;;;;;;;;;;;;
2023/02/16 01:05:14;;;;;;;38.90;16.40;;;;;;;;;;110340;1278;22859;-75
2023/02/16 01:13:16;;;;;;;39.20;16.60;;;;;;;;;;110132;1281;22162;-74
2023/02/16 01:15:43;;;;;;;39.40;15.50;;;;;;;;;;110129;1280;22595;-74
2023/02/16 01:18:14;;;;;;;37.30;16.80;;;;;;;;;;110260;1262;22310;-74
2023/02/16 01:20:41;;;;;;;37.20;15.60;;;;;;;;;;110354;1278;22122;-74
2023/02/16 01:23:08;;;;;;;42.80;16.30;;;;;;;;;;110357;1278;22123;-75
2023/02/16 01:25:37;;;;;;;36.40;15.60;;;;;;;;;;110340;1278;22136;-74
2023/02/16 01:28:18;;;;;;;39.60;16.40;;;;;;;;;;110388;1257;22149;-73
2023/02/16 01:30:45;;;;;;;39.40;16.20;;;;;;;;;;110147;1279;22120;-74
2023/02/16 01:33:12;;;;;;;40.60;16.10;;;;;;;;;;110270;1279;22153;-74
2023/02/16 01:35:39;;;;;;;37.10;14.90;;;;;;;;;;110255;1279;22165;-74
2023/02/16 01:38:25;;;;;;;;;;;;;;;;;;;;;
2023/02/16 01:41:21;;;;;;;37.90;15.70;;;;;;;;;;110412;1278;22206;-74
2023/02/16 01:44:19;;;;;;;39.90;16.20;;;;;;;;;;110357;1278;22139;-75
2023/02/16 01:47:16;;;;;;;40.80;15.40;;;;;;;;;;110260;1278;22132;-74
2023/02/16 01:49:42;;;;;;;38.50;17.10;;;;;;;;;;110451;1258;22147;-74
2023/02/16 01:52:19;;;;;;;;;;;;;;;;;;;;;
2023/02/16 01:54:59;;;;;;;38.50;15.50;;;;;;;;;;110255;1279;22183;-74
2023/02/16 01:57:32;;;;;;;37.10;15.40;;;;;;;;;;110131;1279;21981;-75
2023/02/16 02:00:05;;;;;;;38.40;15.80;;;;;;;;;;110654;1259;22137;-74
2023/02/16 02:02:43;;;;;;;38.90;16.30;;;;;;;;;;110371;1278;22092;-74
2023/02/16 02:05:36;;;;;;;34.70;14.70;;;;;;;;;;110385;1278;22150;-74
2023/02/16 02:08:24;;;;;;;36.50;15.90;;;;;;;;;;110198;1278;22136;-74
2023/02/16 02:10:57;;;;;;;38.30;15.00;;;;;;;;;;110514;1262;22783;-75
2023/02/16 02:14:03;;;;;;;37.40;15.30;;;;;;;;;;110143;1273;22133;-74
2023/02/16 02:16:30;;;;;;;36.50;14.90;;;;;;;;;;109773;1287;22185;-74
2023/02/16 02:26:20;;;;;;;37.40;15.70;;;;;;;;;;109516;1291;22182;-74
2023/02/16 02:28:47;;;;;;;37.40;16.10;;;;;;;;;;109459;1291;22406;-74
2023/02/16 02:38:25;;;;;;;37.30;15.30;;;;;;;;;;108861;1297;23119;-74
2023/02/16 02:41:00;;;;;;;40.40;17.00;;;;;;;;;;108890;1276;22197;-72
2023/02/16 02:44:05;;;;;;;39.30;15.80;;;;;;;;;;108863;1297;22180;-74
2023/02/16 02:46:35;;;;;;;40.70;16.70;;;;;;;;;;108747;1293;22114;-72
2023/02/16 02:49:02;;;;;;;40.80;16.90;;;;;;;;;;109315;1293;23137;-76
2023/02/16 02:51:32;;;;;;;40.80;17.70;;;;;;;;;;109609;1275;22376;-73
2023/02/16 03:38:43;;;;;;;42.00;16.10;;;;;;;;;;109628;1280;22137;-75
2023/02/16 03:42:09;;;;;;;41.20;17.70;;;;;;;;;;110049;1259;22215;-75
2023/02/16 03:44:36;;;;;;;41.00;17.60;;;;;;;;;;110110;1281;22012;-75
2023/02/16 03:47:03;;;;;;;42.10;17.00;;;;;;;;;;110028;1281;22400;-76
2023/02/16 03:49:32;;;;;;;43.50;18.20;;;;;;;;;;110126;1281;22141;-74
2023/02/16 03:59:10;;;;;;;39.90;16.30;;;;;;;;;;109726;1288;22195;-74
2023/02/16 04:01:36;;;;;;;47.30;19.10;;;;;;;;;;109741;1270;22941;-75
2023/02/16 04:04:03;;;;;;;43.50;18.10;;;;;;;;;;109765;1288;22899;-74
2023/02/16 04:06:33;;;;;;;38.00;15.90;;;;;;;;;;109718;1288;22156;-75
2023/02/16 04:09:00;;;;;;;47.20;18.80;;;;;;;;;;109662;1288;22177;-74
2023/02/16 04:14:15;;;;;;;45.40;18.70;;;;;;;;;;109764;1288;22189;-74
2023/02/16 04:16:54;;;;;;;46.10;19.00;;;;;;;;;;109751;1288;22172;-74
2023/02/16 04:24:20;;;;;;;39.40;16.70;;;;;;;;;;109223;1275;22694;-75
2023/02/16 04:26:48;;;;;;;43.40;17.80;;;;;;;;;;109254;1293;22885;-75
2023/02/16 04:29:17;;;;;;;41.70;16.90;;;;;;;;;;109273;1293;22889;-74
2023/02/16 04:31:44;;;;;;;44.30;19.10;;;;;;;;;;109382;1286;22168;-75
2023/02/16 04:34:14;;;;;;;44.80;17.70;;;;;;;;;;109878;1265;22205;-75
2023/02/16 04:36:42;;;;;;;43.80;18.00;;;;;;;;;;109820;1286;22820;-75
2023/02/16 04:39:09;;;;;;;43.50;17.60;;;;;;;;;;109870;1286;22299;-74
2023/02/16 04:41:57;;;;;;;43.20;17.90;;;;;;;;;;109885;1285;22170;-74
2023/02/16 04:44:23;;;;;;;45.10;19.40;;;;;;;;;;109848;1267;22154;-74
2023/02/16 04:46:49;;;;;;;45.00;18.40;;;;;;;;;;109866;1285;22255;-74
2023/02/16 04:49:47;;;;;;;;;;;;;;;;;;;;;
2023/02/16 04:52:46;;;;;;;52.80;20.50;;;;;;;;;;109587;1268;22212;-74
2023/02/16 04:55:13;;;;;;;44.20;18.60;;;;;;;;;;109636;1290;22211;-74
2023/02/16 04:57:40;;;;;;;48.50;19.30;;;;;;;;;;109731;1287;23068;-75
2023/02/16 05:00:08;;;;;;;45.90;19.40;;;;;;;;;;109763;1287;22235;-74
2023/02/16 05:02:38;;;;;;;45.30;17.90;;;;;;;;;;109700;1265;22495;-74
2023/02/16 05:05:05;;;;;;;45.00;18.30;;;;;;;;;;109746;1287;22176;-74
2023/02/16 05:07:36;;;;;;;46.70;18.70;;;;;;;;;;109754;1287;22835;-74
2023/02/16 05:10:03;;;;;;;47.10;20.30;;;;;;;;;;109755;1287;22834;-75
2023/02/16 05:15:16;;;;;;;46.80;18.70;;;;;;;;;;109750;1268;22214;-74
2023/02/16 05:17:43;;;;;;;48.10;19.30;;;;;;;;;;109761;1287;22210;-74
2023/02/16 05:20:10;;;;;;;45.80;19.40;;;;;;;;;;109746;1287;22361;-74
2023/02/16 05:22:38;;;;;;;43.80;20.20;;;;;;;;;;109749;1287;22172;-74
2023/02/16 05:25:18;;;;;;;;;;;;;;;;;;;;;
2023/02/16 05:32:10;;;;;;;42.10;17.70;;;;;;;;;;109743;1288;22915;-74
2023/02/16 05:34:45;;;;;;;49.00;18.70;;;;;;;;;;109767;1267;22251;-74
2023/02/16 05:37:43;;;;;;;46.00;18.30;;;;;;;;;;109731;1288;22160;-74
2023/02/16 05:40:20;;;;;;;47.60;19.90;;;;;;;;;;109737;1288;22958;-74
2023/02/16 05:42:52;;;;;;;47.80;19.60;;;;;;;;;;109758;1288;22144;-74
2023/02/16 05:45:20;;;;;;;54.20;20.90;;;;;;;;;;109866;1267;22216;-73
2023/02/16 05:54:50;;;;;;;48.50;19.50;;;;;;;;;;110064;1259;22143;-74
2023/02/16 06:04:23;;;;;;;48.00;19.70;;;;;;;;;;109729;1264;22900;-74
2023/02/16 06:06:50;;;;;;;49.60;20.00;;;;;;;;;;109732;1288;22713;-74
2023/02/16 06:16:31;;;;;;;50.20;19.30;;;;;;;;;;109271;1275;22172;-74
2023/02/16 06:19:02;;;;;;;47.20;20.80;;;;;;;;;;109122;1295;22158;-75
2023/02/16 06:21:30;;;;;;;51.40;20.20;;;;;;;;;;109178;1295;22210;-74
2023/02/16 06:23:58;;;;;;;47.20;18.80;;;;;;;;;;109134;1294;22141;-75
2023/02/16 06:27:10;;;;;;;45.50;18.90;;;;;;;;;;109010;1280;22903;-74
2023/02/16 06:29:37;;;;;;;46.70;18.80;;;;;;;;;;108670;1297;22260;-74
2023/02/16 06:32:16;;;;;;;;;;;;;;;;;;;;;
2023/02/16 06:35:36;;;;;;;50.10;20.80;;;;;;;;;;108400;1282;22928;-74
2023/02/16 06:38:05;;;;;;;51.70;21.30;;;;;;;;;;108431;1298;22201;-75
2023/02/16 06:40:34;;;;;;;47.70;19.60;;;;;;;;;;108725;1298;22145;-74
2023/02/16 06:43:03;;;;;;;44.90;18.50;;;;;;;;;;108725;1298;22192;-75
2023/02/16 06:45:32;;;;;;;48.60;20.80;;;;;;;;;;108704;1275;22186;-74
2023/02/16 06:48:00;;;;;;;48.00;19.80;;;;;;;;;;108674;1298;22164;-75
2023/02/16 06:50:29;;;;;;;49.40;19.50;;;;;;;;;;109202;1293;22191;-74
2023/02/16 06:52:57;;;;;;;49.50;20.20;;;;;;;;;;109278;1293;22199;-74
2023/02/16 06:55:35;;;;;;;50.80;20.60;;;;;;;;;;109252;1293;22059;-75
2023/02/16 06:58:04;;;;;;;47.90;21.00;;;;;;;;;;109007;1279;23092;-74
2023/02/16 07:00:34;;;;;;;47.50;20.20;;;;;;;;;;109291;1293;22221;-76
2023/02/16 07:07:39;;;;;;;51.10;20.50;;;;;;;;;;109185;1276;22724;-74
2023/02/16 07:14:44;;;;;;;47.00;19.20;;;;;;;;;;108898;1296;22964;-75
2023/02/16 07:17:13;;;;;;;48.20;20.90;;;;;;;;;;109106;1280;22224;-74
2023/02/16 07:19:42;;;;;;;47.10;18.60;;;;;;;;;;109414;1291;23021;-74
2023/02/16 07:22:11;;;;;;;51.30;22.80;;;;;;;;;;109564;1291;22226;-74
2023/02/16 07:24:41;;;;;;;53.50;22.50;;;;;;;;;;109544;1291;22164;-74
2023/02/16 07:27:10;;;;;;;49.60;21.30;;;;;;;;;;109585;1273;22178;-75
2023/02/16 07:29:38;;;;;;;47.00;20.80;;;;;;;;;;109510;1291;22160;-75
2023/02/16 07:39:06;;;;;;;51.20;20.90;;;;;;;;;;103899;1292;545078;-80
2023/02/16 07:41:33;;;;;;;46.80;20.70;;;;;;;;;;106354;1285;22557;-80
2023/02/16 07:44:05;;;;;;;44.00;19.80;;;;;;;;;;106088;1286;25247;-77
2023/02/16 07:46:35;;;;;;;45.30;18.60;;;;;;;;;;106103;1286;25237;-81
2023/02/16 07:49:01;;;;;;;46.40;19.90;;;;;;;;;;106021;1286;24308;-78
2023/02/16 07:51:29;;;;;;;45.00;18.90;;;;;;;;;;105955;1286;24232;-77
2023/02/16 07:53:57;;;;;;;44.10;18.50;;;;;;;;;;104744;1284;2167042;-80
2023/02/16 07:56:42;;;;;;;45.60;20.30;;;;;;;;;;106410;1284;22551;-78
2023/02/16 07:59:13;;;;;;;42.80;18.70;;;;;;;;;;106828;1257;24189;-78
2023/02/16 08:02:03;;;;;;;43.00;18.90;;;;;;;;;;106704;1281;22536;-78
2023/02/16 08:04:41;;;;;;;40.40;17.80;;;;;;;;;;106440;1281;22622;-81
2023/02/16 08:07:10;;;;;;;50.50;20.50;;;;;;;;;;106460;1281;22529;-75
2023/02/16 08:09:39;;;;;;;44.10;19.30;;;;;;;;;;106639;1258;22601;-81
2023/02/16 08:12:07;;;;;;;43.90;18.60;;;;;;;;;;106495;1269;22555;-81
2023/02/16 08:14:34;;;;;;;47.20;20.90;;;;;;;;;;106437;1281;24295;-79
2023/02/16 08:17:02;;;;;;;48.80;21.20;;;;;;;;;;106360;1281;22533;-77
2023/02/16 08:19:33;;;;;;;43.70;18.90;;;;;;;;;;106332;1268;22923;-75
2023/02/16 08:22:01;;;;;;;41.80;18.90;;;;;;;;;;106810;1276;22542;-77
2023/02/16 08:24:38;;;;;;;39.20;17.90;;;;;;;;;;106873;1266;22697;-81
2023/02/16 08:27:06;;;;;;;41.90;17.90;;;;;;;;;;106998;1276;22591;-79
2023/02/16 08:29:53;;;;;;;42.00;17.50;;;;;;;;;;106829;1259;25555;-81
2023/02/16 08:32:22;;;;;;;40.50;17.20;;;;;;;;;;106971;1272;22526;-79
2023/02/16 08:34:50;;;;;;;43.30;19.30;;;;;;;;;;107151;1272;22657;-79
2023/02/16 08:37:17;;;;;;;45.20;20.00;;;;;;;;;;107219;1272;25379;-76
2023/02/16 08:39:47;;;;;;;40.60;17.30;;;;;;;;;;107217;1256;24205;-82
2023/02/16 08:42:17;;;;;;;42.10;18.90;;;;;;;;;;107284;1272;22527;-82
2023/02/16 08:45:03;;;;;;;39.40;18.10;;;;;;;;;;107266;1272;25303;-78
2023/02/16 08:47:30;;;;;;;42.10;17.80;;;;;;;;;;107288;1272;24250;-76
2023/02/16 08:50:00;;;;;;;40.90;17.60;;;;;;;;;;107229;1254;22532;-81
2023/02/16 08:52:47;;;;;;;36.70;17.10;;;;;;;;;;107213;1272;24272;-81
2023/02/16 08:55:17;;;;;;;38.60;16.90;;;;;;;;;;107308;1272;22510;-73
2023/02/16 08:57:46;;;;;;;41.90;17.40;;;;;;;;;;107330;1272;24405;-80
2023/02/16 09:02:59;;;;;;;42.70;18.40;;;;;;;;;;107294;1272;22656;-77
2023/02/16 09:05:29;;;;;;;46.10;18.70;;;;;;;;;;107343;1272;22792;-76
2023/02/16 09:07:59;;;;;;;46.00;19.40;;;;;;;;;;107152;1272;22524;-82
2023/02/16 09:10:29;;;;;;;40.90;18.40;;;;;;;;;;107164;1254;25321;-79
2023/02/16 09:12:56;;;;;;;43.90;19.40;;;;;;;;;;107271;1272;25353;-77
2023/02/16 09:15:23;;;;;;;46.10;19.30;;;;;;;;;;107316;1272;22526;-79
2023/02/16 09:17:50;;;;;;;45.30;19.10;;;;;;;;;;107229;1272;22538;-76
2023/02/16 09:20:19;;;;;;;41.60;18.90;;;;;;;;;;107205;1253;22668;-82
2023/02/16 09:22:46;;;;;;;46.20;19.90;;;;;;;;;;107290;1272;25284;-80
2023/02/16 09:25:14;;;;;;;44.10;19.80;;;;;;;;;;107267;1272;25293;-75
2023/02/16 09:28:01;;;;;;;48.90;20.10;;;;;;;;;;107243;1272;25360;-77
2023/02/16 09:30:28;;;;;;;44.70;19.30;;;;;;;;;;107260;1254;22529;-75
2023/02/16 09:32:58;;;;;;;40.10;18.60;;;;;;;;;;107206;1272;25300;-79
2023/02/16 09:35:27;;;;;;;43.70;20.00;;;;;;;;;;107243;1272;22601;-77
2023/02/16 09:37:57;;;;;;;40.80;19.40;;;;;;;;;;107266;1272;24337;-78
2023/02/16 09:40:24;;;;;;;45.90;19.80;;;;;;;;;;107183;1251;22530;-77
2023/02/16 09:43:06;;;;;;;43.90;19.40;;;;;;;;;;107257;1272;22718;-75
2023/02/16 09:45:38;;;;;;;40.70;18.20;;;;;;;;;;107360;1272;21696;-78
2023/02/16 09:48:25;;;;;;;42.00;18.70;;;;;;;;;;107371;1272;24227;-79
2023/02/16 09:50:52;;;;;;;43.50;19.20;;;;;;;;;;107278;1272;22673;-78
2023/02/16 09:53:21;;;;;;;43.90;19.00;;;;;;;;;;107223;1272;23624;-82
2023/02/16 09:55:58;;;;;;;45.50;20.10;;;;;;;;;;107165;1272;24239;-77
2023/02/16 09:58:45;;;;;;;47.00;22.00;;;;;;;;;;107214;1272;22526;-83
2023/02/16 10:01:18;;;;;;;44.70;20.60;;;;;;;;;;107300;1270;22575;-83
2023/02/16 10:04:25;;;;;;;52.80;22.30;;;;;;;;;;107271;1272;22603;-80
2023/02/16 10:07:13;;;;;;;50.50;22.30;;;;;;;;;;107293;1272;24250;-78
2023/02/16 10:09:46;;;;;;;45.90;22.40;;;;;;;;;;107271;1272;24246;-80
2023/02/16 10:12:23;;;;;;;47.70;22.20;;;;;;;;;;107285;1272;22539;-76
2023/02/16 10:14:52;;;;;;;43.70;19.80;;;;;;;;;;107234;1272;25566;-83
2023/02/16 10:17:34;;;;;;;48.00;21.70;;;;;;;;;;107227;1272;25405;-79
2023/02/16 10:20:16;;;;;;;47.90;21.70;;;;;;;;;;107351;1272;25628;-79
2023/02/16 10:22:47;;;;;;;52.70;24.20;;;;;;;;;;107242;1263;24189;-76
2023/02/16 10:25:17;;;;;;;51.40;21.60;;;;;;;;;;107214;1272;22535;-79
2023/02/16 10:27:46;;;;;;;48.30;21.50;;;;;;;;;;107218;1272;23016;-79
2023/02/16 10:30:27;;;;;;;51.50;22.80;;;;;;;;;;107282;1272;22534;-80
2023/02/16 10:32:56;;;;;;;51.90;23.90;;;;;;;;;;107321;1253;22581;-83
2023/02/16 10:35:42;;;;;;;49.70;23.60;;;;;;;;;;107363;1272;25345;-80
2023/02/16 10:38:23;;;;;;;47.00;22.70;;;;;;;;;;107192;1272;25283;-75
2023/02/16 10:40:53;;;;;;;45.30;21.10;;;;;;;;;;107185;1272;22533;-76
2023/02/16 10:43:41;;;;;;;48.10;22.60;;;;;;;;;;107129;1253;22538;-82
2023/02/16 10:46:10;;;;;;;45.80;21.70;;;;;;;;;;107218;1272;22997;-82
2023/02/16 10:48:37;;;;;;;42.20;20.40;;;;;;;;;;107324;1272;24270;-79
2023/02/16 10:51:09;;;;;;;44.00;21.50;;;;;;;;;;107263;1263;25584;-80
2023/02/16 10:53:42;;;;;;;47.40;20.70;;;;;;;;;;107131;1257;22607;-78
2023/02/16 10:56:28;;;;;;;48.90;22.30;;;;;;;;;;107369;1272;25405;-80
2023/02/16 10:59:15;;;;;;;49.10;24.00;;;;;;;;;;107195;1272;24253;-79
2023/02/16 11:01:49;;;;;;;50.70;24.60;;;;;;;;;;107213;1272;22536;-76
2023/02/16 11:04:55;;;;;;;44.20;21.40;;;;;;;;;;107133;1256;22659;-81
2023/02/16 11:07:23;;;;;;;45.40;21.10;;;;;;;;;;106833;1278;22744;-76
2023/02/16 11:09:54;;;;;;;43.70;21.10;;;;;;;;;;106847;1256;22546;-76
2023/02/16 11:12:28;;;;;;;43.60;21.70;;;;;;;;;;106865;1256;25500;-76
2023/02/16 11:15:03;;;;;;;46.40;22.70;;;;;;;;;;106879;1278;22572;-80
2023/02/16 11:17:31;;;;;;;44.30;20.90;;;;;;;;;;106710;1278;25240;-81
2023/02/16 11:20:05;;;;;;;44.20;20.80;;;;;;;;;;106754;1279;22772;-81
2023/02/16 11:22:36;;;;;;;42.00;20.10;;;;;;;;;;106862;1257;22552;-79
2023/02/16 11:25:23;;;;;;;43.60;21.30;;;;;;;;;;106774;1278;22540;-76
2023/02/16 11:27:51;;;;;;;43.00;21.30;;;;;;;;;;106824;1279;25300;-75
2023/02/16 11:30:25;;;;;;;42.40;20.60;;;;;;;;;;106721;1278;25331;-80
2023/02/16 11:32:51;;;;;;;42.00;19.50;;;;;;;;;;106824;1256;22549;-82
2023/02/16 11:35:21;;;;;;;44.60;21.90;;;;;;;;;;106723;1279;22536;-83
2023/02/16 11:37:50;;;;;;;42.10;20.00;;;;;;;;;;106916;1272;22530;-77
2023/02/16 11:40:27;;;;;;;45.00;21.00;;;;;;;;;;107292;1261;25230;-83
2023/02/16 11:43:06;;;;;;;40.40;18.40;;;;;;;;;;107267;1251;22530;-80
2023/02/16 11:45:34;;;;;;;48.20;20.50;;;;;;;;;;107311;1272;22534;-77
2023/02/16 11:48:08;;;;;;;45.20;20.70;;;;;;;;;;107335;1272;22582;-76
2023/02/16 11:50:37;;;;;;;44.70;20.90;;;;;;;;;;107140;1272;22545;-81
2023/02/16 11:53:31;;;;;;;44.80;22.30;;;;;;;;;;107294;1249;22610;-81
2023/02/16 11:56:36;;;;;;;47.50;22.10;;;;;;;;;;107373;1263;25252;-76
2023/02/16 11:59:08;;;;;;;44.80;21.30;;;;;;;;;;106802;1278;26532;-78
2023/02/16 12:01:35;;;;;;;42.80;20.40;;;;;;;;;;106852;1278;25281;-80
2023/02/16 12:04:30;;;;;;;42.50;22.10;;;;;;;;;;106822;1278;22595;-83
2023/02/16 12:07:07;;;;;;;48.90;21.60;;;;;;;;;;106845;1279;24442;-81
2023/02/16 12:09:54;;;;;;;44.70;20.80;;;;;;;;;;106792;1279;26650;-76
2023/02/16 12:12:30;;;;;;;42.90;21.80;;;;;;;;;;106812;1279;22539;-79
2023/02/16 12:15:11;;;;;;;43.10;20.70;;;;;;;;;;106841;1259;22662;-81
2023/02/16 12:18:00;;;;;;;44.00;20.90;;;;;;;;;;106746;1278;22536;-83
2023/02/16 12:20:36;;;;;;;44.70;21.50;;;;;;;;;;106830;1278;24259;-79
2023/02/16 12:23:02;;;;;;;41.20;20.40;;;;;;;;;;106780;1278;22492;-78
2023/02/16 12:25:32;;;;;;;42.10;20.30;;;;;;;;;;106808;1259;24467;-76
2023/02/16 12:28:11;;;;;;;45.30;22.10;;;;;;;;;;106552;1278;24176;-81
2023/02/16 12:30:58;;;;;;;44.70;21.10;;;;;;;;;;106546;1278;22713;-82
2023/02/16 12:33:30;;;;;;;45.10;22.30;;;;;;;;;;106421;1279;22572;-80
2023/02/16 12:36:05;;;;;;;40.90;21.40;;;;;;;;;;106358;1278;25373;-76
2023/02/16 12:38:37;;;;;;;41.80;21.40;;;;;;;;;;106790;1278;23907;-76
2023/02/16 12:41:24;;;;;;;46.20;22.90;;;;;;;;;;106880;1278;23886;-80
2023/02/16 12:43:52;;;;;;;46.10;22.10;;;;;;;;;;106420;1284;24205;-77
2023/02/16 12:46:23;;;;;;;47.00;22.20;;;;;;;;;;106456;1265;22551;-79
2023/02/16 12:48:54;;;;;;;43.50;21.80;;;;;;;;;;106376;1284;22711;-76
2023/02/16 12:51:30;;;;;;;45.80;21.10;;;;;;;;;;106360;1274;22560;-78
2023/02/16 12:54:03;;;;;;;43.90;21.50;;;;;;;;;;106309;1284;25524;-80
2023/02/16 12:56:42;;;;;;;44.80;23.40;;;;;;;;;;106396;1268;22542;-82
2023/02/16 12:59:18;;;;;;;44.40;20.90;;;;;;;;;;106516;1285;22559;-81
2023/02/16 13:01:46;;;;;;;43.20;21.20;;;;;;;;;;106443;1285;22541;-80
2023/02/16 13:04:17;;;;;;;45.90;21.70;;;;;;;;;;106285;1271;22542;-79
2023/02/16 13:06:57;;;;;;;45.40;20.40;;;;;;;;;;106334;1268;22709;-80
2023/02/16 13:09:45;;;;;;;43.50;20.80;;;;;;;;;;106407;1262;24352;-78
2023/02/16 13:12:18;;;;;;;41.80;19.70;;;;;;;;;;106925;1280;22625;-77
2023/02/16 13:14:49;;;;;;;43.60;20.20;;;;;;;;;;106594;1257;21958;-81
2023/02/16 13:17:24;;;;;;;38.50;18.80;;;;;;;;;;106479;1279;23978;-79
2023/02/16 13:19:51;;;;;;;43.90;20.10;;;;;;;;;;106783;1279;25363;-79
2023/02/16 13:22:41;;;;;;;45.20;21.30;;;;;;;;;;107057;1273;22526;-79
2023/02/16 13:25:11;;;;;;;44.20;21.10;;;;;;;;;;107128;1273;25149;-78
2023/02/16 13:27:56;;;;;;;49.80;22.20;;;;;;;;;;107169;1269;22552;-79
2023/02/16 13:31:03;;;;;;;45.70;20.90;;;;;;;;;;107107;1273;22527;-76
2023/02/16 13:33:43;;;;;;;47.30;21.30;;;;;;;;;;106774;1279;25239;-78
2023/02/16 13:36:17;;;;;;;46.90;22.10;;;;;;;;;;106737;1261;22539;-81
2023/02/16 13:39:20;;;;;;;51.70;22.90;;;;;;;;;;106822;1279;24258;-79
2023/02/16 13:42:08;;;;;;;45.00;20.10;;;;;;;;;;106272;1286;21903;-77
2023/02/16 13:44:44;;;;;;;54.20;23.40;;;;;;;;;;106327;1286;23358;-77
2023/02/16 13:47:26;;;;;;;;;;;;;;;;;;;;;
2023/02/16 13:49:59;;;;;;;47.10;21.50;;;;;;;;;;106373;1285;25247;-78
2023/02/16 13:52:38;;;;;;;50.90;20.90;;;;;;;;;;106366;1285;25263;-80
2023/02/16 13:55:07;;;;;;;43.40;20.40;;;;;;;;;;106413;1285;25400;-76
2023/02/16 13:57:49;;;;;;;42.50;21.00;;;;;;;;;;106299;1269;24420;-77
2023/02/16 14:00:54;;;;;;;45.50;21.50;;;;;;;;;;106275;1286;25287;-79
2023/02/16 14:03:30;;;;;;;48.90;22.00;;;;;;;;;;106068;1286;24047;-81
2023/02/16 14:06:41;;;;;;;49.40;22.90;;;;;;;;;;106710;1257;22637;-80
2023/02/16 14:09:12;;;;;;;45.10;21.20;;;;;;;;;;106732;1279;25463;-80
2023/02/16 14:12:19;;;;;;;40.90;19.30;;;;;;;;;;106645;1279;25274;-75
2023/02/16 14:14:52;;;;;;;38.00;16.90;;;;;;;;;;106372;1279;23879;-77
2023/02/16 14:17:28;;;;;;;43.90;20.70;;;;;;;;;;107065;1255;25255;-81
2023/02/16 14:20:07;;;;;;;49.10;20.60;;;;;;;;;;107166;1273;24646;-78
2023/02/16 14:22:47;;;;;;;53.40;23.60;;;;;;;;;;107239;1273;22530;-78
2023/02/16 14:25:36;;;;;;;66.50;26.50;;;;;;;;;;107221;1273;22534;-79
2023/02/16 14:28:42;;;;;;;46.10;19.90;;;;;;;;;;107224;1256;24174;-77
2023/02/16 14:31:17;;;;;;;44.00;20.30;;;;;;;;;;107183;1273;22523;-80
2023/02/16 14:34:07;;;;;;;52.00;21.20;;;;;;;;;;107233;1272;22585;-79
2023/02/16 14:36:45;;;;;;;45.10;19.90;;;;;;;;;;107244;1267;22479;-80
2023/02/16 14:39:21;;;;;;;50.80;22.30;;;;;;;;;;107397;1266;25223;-77
2023/02/16 14:41:48;;;;;;;55.90;24.30;;;;;;;;;;107306;1269;24398;-76
2023/02/16 14:44:51;;;;;;;60.90;27.60;;;;;;;;;;107148;1273;25362;-78
2023/02/16 14:47:35;;;;;;;60.20;26.80;;;;;;;;;;106788;1262;22537;-79
2023/02/16 14:50:10;;;;;;;63.90;27.40;;;;;;;;;;106587;1278;24211;-80
2023/02/16 14:52:50;;;;;;;56.70;25.60;;;;;;;;;;106471;1280;23149;-81
2023/02/16 14:55:35;;;;;;;56.00;22.80;;;;;;;;;;106748;1279;24359;-78
2023/02/16 14:58:27;;;;;;;57.70;24.80;;;;;;;;;;106709;1262;24244;-76
2023/02/16 15:01:01;;;;;;;62.90;26.40;;;;;;;;;;106678;1280;22536;-80
2023/02/16 15:03:38;;;;;;;67.50;27.80;;;;;;;;;;106718;1279;22537;-82
2023/02/16 15:06:13;;;;;;;62.10;25.80;;;;;;;;;;106848;1275;25256;-79
2023/02/16 15:08:58;;;;;;;65.70;27.30;;;;;;;;;;106616;1265;25288;-77
2023/02/16 15:11:34;;;;;;;77.10;29.80;;;;;;;;;;106665;1273;22540;-79
2023/02/16 15:14:17;;;;;;;75.00;28.60;;;;;;;;;;106527;1274;22540;-76
2023/02/16 15:16:47;;;;;;;61.00;24.10;;;;;;;;;;106616;1274;24219;-79
2023/02/16 15:19:21;;;;;;;75.50;27.90;;;;;;;;;;106780;1262;24226;-76
2023/02/16 15:22:05;;;;;;;63.00;25.00;;;;;;;;;;107063;1266;24189;-76
2023/02/16 15:25:07;;;;;;;67.00;26.90;;;;;;;;;;107200;1263;22529;-75
2023/02/16 15:28:15;;;;;;;65.30;26.80;;;;;;;;;;107337;1269;22533;-82
2023/02/16 15:31:07;;;;;;;62.00;24.90;;;;;;;;;;106797;1279;22507;-82
2023/02/16 15:33:54;;;;;;;68.10;26.60;;;;;;;;;;106843;1272;22536;-76
2023/02/16 15:36:41;;;;;;;63.90;26.50;;;;;;;;;;106806;1278;25558;-76
2023/02/16 15:39:34;;;;;;;61.80;25.00;;;;;;;;;;106828;1262;22536;-79
2023/02/16 15:42:19;;;;;;;69.50;27.70;;;;;;;;;;106772;1272;22613;-80
2023/02/16 15:44:46;;;;;;;69.50;28.80;;;;;;;;;;106659;1273;24341;-74
2023/02/16 15:47:20;;;;;;;76.50;31.30;;;;;;;;;;106718;1279;25005;-77
2023/02/16 15:49:49;;;;;;;68.60;27.80;;;;;;;;;;106785;1279;25353;-80
2023/02/16 15:52:29;;;;;;;67.80;26.60;;;;;;;;;;106796;1275;22549;-80
2023/02/16 15:55:02;;;;;;;74.70;30.40;;;;;;;;;;106856;1274;22540;-79
2023/02/16 15:57:50;;;;;;;74.10;28.70;;;;;;;;;;106792;1272;22509;-77
2023/02/16 16:00:19;;;;;;;70.50;28.80;;;;;;;;;;106554;1270;25240;-76
2023/02/16 16:02:51;;;;;;;68.40;28.60;;;;;;;;;;106833;1273;22529;-78
2023/02/16 16:05:24;;;;;;;72.80;29.30;;;;;;;;;;106808;1276;22540;-76
2023/02/16 16:08:12;;;;;;;74.50;29.00;;;;;;;;;;106956;1266;24199;-78
2023/02/16 16:10:45;;;;;;;68.20;27.80;;;;;;;;;;107259;1265;25287;-78
2023/02/16 16:13:16;;;;;;;81.60;31.30;;;;;;;;;;107126;1267;24339;-79
2023/02/16 16:15:47;;;;;;;80.30;27.90;;;;;;;;;;107168;1274;24316;-77
2023/02/16 16:18:38;;;;;;;83.20;28.00;;;;;;;;;;107117;1267;22531;-78
2023/02/16 16:21:23;;;;;;;86.80;31.90;;;;;;;;;;107121;1274;25366;-80
2023/02/16 16:23:55;;;;;;;90.10;31.80;;;;;;;;;;107254;1269;22472;-77
2023/02/16 16:26:23;;;;;;;98.80;33.10;;;;;;;;;;107173;1273;22620;-77
2023/02/16 16:28:53;;;;;;;110.40;34.50;;;;;;;;;;107194;1273;25393;-80
2023/02/16 16:31:20;;;;;;;122.10;36.30;;;;;;;;;;107140;1251;24198;-80
2023/02/16 16:34:22;;;;;;;124.10;35.70;;;;;;;;;;107233;1273;22537;-81
2023/02/16 16:36:55;;;;;;;112.80;30.70;;;;;;;;;;107187;1273;22607;-79
2023/02/16 16:39:42;;;;;;;99.50;30.20;;;;;;;;;;107203;1257;24054;-76
2023/02/16 16:42:17;;;;;;;73.40;26.50;;;;;;;;;;107232;1273;24240;-80
2023/02/16 16:44:53;;;;;;;66.20;22.40;;;;;;;;;;107135;1273;22535;-78
2023/02/16 16:47:24;;;;;;;57.70;20.90;;;;;;;;;;107144;1267;22671;-77
2023/02/16 16:49:53;;;;;;;53.00;19.90;;;;;;;;;;107145;1250;25197;-76
2023/02/16 16:52:29;;;;;;;55.60;20.20;;;;;;;;;;107406;1274;24214;-76
2023/02/16 16:54:59;;;;;;;52.50;19.80;;;;;;;;;;107274;1274;25343;-78
2023/02/16 16:57:26;;;;;;;50.30;20.10;;;;;;;;;;110515;1274;22145;-76
2023/02/16 16:59:53;;;;;;;53.20;21.80;;;;;;;;;;110527;1251;22289;-74
2023/02/16 17:02:20;;;;;;;51.80;20.70;;;;;;;;;;110598;1274;22331;-74
2023/02/16 17:04:46;;;;;;;59.50;20.50;;;;;;;;;;110657;1274;22396;-75
2023/02/16 17:07:13;;;;;;;56.00;21.80;;;;;;;;;;110660;1274;22128;-75
2023/02/16 17:09:40;;;;;;;57.30;20.50;;;;;;;;;;110582;1274;22125;-74
2023/02/16 17:12:08;;;;;;;62.10;23.30;;;;;;;;;;110624;1256;22123;-75
2023/02/16 17:14:35;;;;;;;70.50;26.40;;;;;;;;;;110657;1274;22148;-75